Time;durP1;ratioP1;P1;durP2;ratioP2;P2;SDS_P1;SDS_P2;PMS_P1;PMS_P2;Temp;Humidity;BMP_temperature;BMP_pressure;BME280_temperature;BME280_humidity;BME280_pressure;Samples;Min_cycle;Max_cycle;Signal;HPM_P1;HPM_P2
2022/11/26 00:00:17;;;;;;;41.47;15.13;;;;;;;-148.88;100.00;77239.97;4994395;28;20477;-75
2022/11/26 00:02:43;;;;;;;35.30;14.45;;;;;;;-148.88;100.00;77227.78;4994788;28;20088;-75
2022/11/26 00:05:14;;;;;;;44.30;14.02;;;;;;;-148.88;100.00;77237.94;4994987;28;20033;-75
2022/11/26 00:07:43;;;;;;;38.60;15.10;;;;;;;-148.88;100.00;77239.97;4994465;28;20026;-75
2022/11/26 00:10:22;;;;;;;35.83;14.90;;;;;;;-148.88;100.00;77250.13;4994264;28;20030;-76
2022/11/26 00:12:47;;;;;;;38.90;14.75;;;;;;;-148.88;100.00;77254.19;4994225;28;20049;-75
2022/11/26 00:15:28;;;;;;;40.15;14.55;;;;;;;-148.88;100.00;77264.34;4994212;28;20489;-75
2022/11/26 00:17:54;;;;;;;37.30;13.85;;;;;;;-148.88;100.00;77276.53;4993964;28;20026;-75
2022/11/26 00:20:23;;;;;;;33.88;13.07;;;;;;;-148.88;100.00;77278.56;4992977;28;20505;-75
2022/11/26 00:22:54;;;;;;;32.45;13.27;;;;;;;-148.88;100.00;77292.81;4992888;28;20030;-75
2022/11/26 00:25:25;;;;;;;30.85;13.02;;;;;;;-148.88;100.00;77294.84;4992852;28;20516;-75
2022/11/26 00:27:54;;;;;;;34.72;15.18;;;;;;;-148.88;100.00;77290.75;4994426;28;20034;-75
2022/11/26 00:30:22;;;;;;;33.35;13.82;;;;;;;-148.88;100.00;77300.94;4992615;28;20485;-75
2022/11/26 00:32:48;;;;;;;38.63;15.00;;;;;;;-148.88;100.00;77309.06;4993885;28;20030;-75
2022/11/26 00:35:14;;;;;;;39.70;14.85;;;;;;;-148.88;100.00;77315.16;4992656;28;20041;-75
2022/11/26 00:37:57;;;;;;;34.45;13.40;;;;;;;-148.88;100.00;77323.28;4994174;28;20030;-75
2022/11/26 00:40:25;;;;;;;35.33;14.70;;;;;;;-148.88;100.00;77329.38;4994135;28;20022;-75
2022/11/26 00:42:52;;;;;;;38.22;16.48;;;;;;;-148.88;100.00;77333.44;4993813;28;20030;-75
2022/11/26 00:45:24;;;;;;;40.83;15.02;;;;;;;-148.88;100.00;77337.50;4993825;28;20030;-75
2022/11/26 00:47:50;;;;;;;32.17;13.32;;;;;;;-148.88;100.00;77341.56;4993917;28;20145;-75
2022/11/26 00:50:22;;;;;;;36.05;13.77;;;;;;;-148.88;100.00;77345.63;4993739;28;20033;-75
2022/11/26 00:52:51;;;;;;;33.75;12.95;;;;;;;-148.88;100.00;77345.63;4993948;28;20451;-75
2022/11/26 00:55:28;;;;;;;31.08;14.73;;;;;;;-148.88;100.00;77349.69;4993804;28;20029;-75
2022/11/26 00:57:55;;;;;;;40.10;14.32;;;;;;;-148.88;100.00;77349.69;5004685;22;20196;-87
2022/11/26 01:00:23;;;;;;;32.15;13.23;;;;;;;-148.88;100.00;77353.75;5012157;28;20037;-87
2022/11/26 01:02:49;;;;;;;32.70;12.35;;;;;;;-148.88;100.00;77359.84;5012130;28;20026;-87
2022/11/26 01:05:15;;;;;;;35.42;13.85;;;;;;;-148.88;100.00;77370.00;5013696;28;20029;-87
2022/11/26 01:07:42;;;;;;;33.08;13.73;;;;;;;-148.88;100.00;77370.00;5012218;28;20029;-88
2022/11/26 01:10:27;;;;;;;37.45;13.70;;;;;;;-148.88;100.00;77376.13;5056024;23;20571;-84
2022/11/26 01:12:53;;;;;;;34.15;12.77;;;;;;;-148.88;100.00;77382.22;4994746;28;20038;-83
2022/11/26 01:15:23;;;;;;;31.40;11.80;;;;;;;-148.88;100.00;77386.28;4994021;28;20065;-83
2022/11/26 01:17:50;;;;;;;47.33;13.23;;;;;;;-148.88;100.00;77398.47;4995922;28;20502;-84
2022/11/26 01:20:29;;;;;;;35.13;12.68;;;;;;;-148.88;100.00;77398.47;4997780;28;20117;-83
2022/11/26 01:22:56;;;;;;;36.53;11.70;;;;;;;-148.88;100.00;77402.53;5008094;28;20126;-84
2022/11/26 01:25:24;;;;;;;42.42;13.60;;;;;;;-148.88;100.00;77386.28;5007782;28;20054;-84
2022/11/26 01:27:50;;;;;;;42.72;14.20;;;;;;;-148.88;100.00;77386.28;4997524;28;20058;-84
2022/11/26 01:30:20;;;;;;;42.80;15.45;;;;;;;-148.88;100.00;77370.00;5000028;28;20053;-84
2022/11/26 01:32:47;;;;;;;60.00;16.13;;;;;;;-148.88;100.00;77376.13;4999480;28;20026;-86
2022/11/26 01:35:12;;;;;;;40.95;14.68;;;;;;;-148.88;100.00;77370.00;4998463;28;20049;-83
2022/11/26 01:37:38;;;;;;;48.47;15.25;;;;;;;-148.88;100.00;77374.09;4998826;28;20032;-84
2022/11/26 01:40:25;;;;;;;51.63;18.33;;;;;;;-148.88;100.00;77374.09;4997897;28;20453;-83
2022/11/26 01:43:14;;;;;;;43.88;14.50;;;;;;;-148.88;100.00;77370.00;4998008;28;20026;-83
2022/11/26 01:45:39;;;;;;;49.03;15.70;;;;;;;-148.88;100.00;77363.91;4999476;28;20041;-86
2022/11/26 01:48:25;;;;;;;52.65;16.27;;;;;;;-148.88;100.00;77359.84;4999643;28;20105;-86
2022/11/26 01:51:03;;;;;;;90.03;18.58;;;;;;;-148.88;100.00;77363.91;4999747;28;20018;-87
2022/11/26 01:53:34;;;;;;;62.85;17.42;;;;;;;-148.88;100.00;77349.69;5000705;28;20243;-86
2022/11/26 01:56:05;;;;;;;52.92;18.50;;;;;;;-148.88;100.00;77355.78;5000144;28;20090;-86
2022/11/26 01:58:35;;;;;;;59.83;16.70;;;;;;;-148.88;100.00;77353.75;4999059;28;20025;-86
2022/11/26 02:01:00;;;;;;;57.55;18.40;;;;;;;-148.88;100.00;77345.63;4999432;28;20022;-86
2022/11/26 02:03:29;;;;;;;67.90;19.75;;;;;;;-148.88;100.00;77351.72;5000294;28;20030;-84
2022/11/26 02:06:09;;;;;;;77.55;21.67;;;;;;;-148.88;100.00;77353.75;5000791;28;20026;-86
2022/11/26 02:08:35;;;;;;;56.55;17.77;;;;;;;-148.88;100.00;77349.69;4999806;28;20033;-85
2022/11/26 02:11:16;;;;;;;64.57;20.50;;;;;;;-148.88;100.00;77349.69;4996677;28;20392;-84
2022/11/26 02:13:43;;;;;;;78.38;19.88;;;;;;;-148.88;100.00;77357.81;4997320;28;20030;-85
2022/11/26 02:16:30;;;;;;;136.65;24.38;;;;;;;-148.88;100.00;77351.72;4998676;28;20481;-85
2022/11/26 02:19:15;;;;;;;76.88;19.67;;;;;;;-148.88;100.00;77351.72;4998121;28;20078;-86
2022/11/26 02:21:51;;;;;;;89.72;20.83;;;;;;;-148.88;100.00;77351.72;4998956;28;20489;-86
2022/11/26 02:24:34;;;;;;;62.33;18.20;;;;;;;-148.88;100.00;77343.59;4998470;28;20026;-85
2022/11/26 02:27:38;;;;;;;85.07;21.15;;;;;;;-148.88;100.00;77353.75;4997857;28;20036;-85
2022/11/26 02:30:08;;;;;;;79.55;19.15;;;;;;;-148.88;100.00;77357.81;4999754;28;20019;-85
2022/11/26 02:32:46;;;;;;;66.63;19.25;;;;;;;-148.88;100.00;77355.78;4998524;28;20033;-85
2022/11/26 02:35:18;;;;;;;98.15;20.25;;;;;;;-148.88;100.00;77357.81;4999983;28;20026;-85
2022/11/26 02:37:57;;;;;;;68.45;19.33;;;;;;;-148.88;100.00;77361.88;4998340;28;20088;-85
2022/11/26 02:40:23;;;;;;;79.75;20.02;;;;;;;-148.88;100.00;77365.94;4998951;28;20023;-86
2022/11/26 02:42:48;;;;;;;80.60;19.67;;;;;;;-148.88;100.00;77365.94;5000274;28;20023;-84
2022/11/26 02:45:20;;;;;;;59.53;18.13;;;;;;;-148.88;100.00;77376.13;4997756;28;20101;-85
2022/11/26 02:47:51;;;;;;;67.90;18.33;;;;;;;-148.88;100.00;77370.00;4996545;28;20033;-85
2022/11/26 02:50:38;;;;;;;70.68;18.83;;;;;;;-148.88;100.00;77376.13;4996394;28;20026;-85
2022/11/26 02:53:04;;;;;;;65.78;18.65;;;;;;;-148.88;100.00;77384.25;4998137;28;20034;-84
2022/11/26 02:55:37;;;;;;;55.22;18.08;;;;;;;-148.88;100.00;77382.22;4997242;28;20026;-85
2022/11/26 02:58:02;;;;;;;74.03;19.58;;;;;;;-148.88;100.00;77394.41;4998322;28;20088;-86
2022/11/26 03:00:30;;;;;;;69.18;20.17;;;;;;;-148.88;100.00;77392.38;4997833;28;20481;-86
2022/11/26 03:03:07;;;;;;;66.40;18.80;;;;;;;-148.88;100.00;77396.44;4998828;28;20040;-85
2022/11/26 03:05:37;;;;;;;53.85;18.25;;;;;;;-148.88;100.00;77400.50;5000054;28;20145;-85
2022/11/26 03:08:04;;;;;;;56.95;17.25;;;;;;;-148.88;100.00;77390.34;4998824;28;20022;-85
2022/11/26 03:10:30;;;;;;;51.90;16.40;;;;;;;-148.88;100.00;77398.47;4999593;28;20034;-85
2022/11/26 03:12:56;;;;;;;55.50;16.15;;;;;;;-148.88;100.00;77398.47;4999122;28;20507;-84
2022/11/26 03:15:22;;;;;;;57.45;17.13;;;;;;;-148.88;100.00;77402.53;4999595;28;20051;-85
2022/11/26 03:17:47;;;;;;;52.55;17.83;;;;;;;-148.88;100.00;77392.38;4998978;28;20026;-84
2022/11/26 03:20:13;;;;;;;56.70;17.77;;;;;;;-148.88;100.00;77394.41;4995805;28;20048;-85
2022/11/26 03:22:39;;;;;;;50.38;16.92;;;;;;;-148.88;100.00;77406.59;4995449;28;20460;-85
2022/11/26 03:25:08;;;;;;;51.65;16.25;;;;;;;-148.88;100.00;77404.56;5000424;28;20536;-87
2022/11/26 03:27:34;;;;;;;48.92;16.65;;;;;;;-148.88;100.00;77402.53;5001502;28;20030;-87
2022/11/26 03:29:59;;;;;;;46.30;15.15;;;;;;;-148.88;100.00;77398.47;5003166;28;20039;-85
2022/11/26 03:32:25;;;;;;;71.47;17.73;;;;;;;-148.88;100.00;77406.59;5003995;28;20041;-86
2022/11/26 03:34:50;;;;;;;45.08;14.90;;;;;;;-148.88;100.00;77398.47;5000529;28;20037;-87
2022/11/26 03:37:16;;;;;;;52.70;16.77;;;;;;;-148.88;100.00;77404.56;5000305;28;20030;-87
2022/11/26 03:39:42;;;;;;;52.13;16.02;;;;;;;-148.88;100.00;77398.47;5000205;28;20030;-87
2022/11/26 03:42:07;;;;;;;44.40;16.25;;;;;;;-148.88;100.00;77404.56;5000916;28;20053;-87
2022/11/26 03:44:32;;;;;;;46.78;15.73;;;;;;;-148.88;100.00;77402.53;5001188;28;20030;-87
2022/11/26 03:46:58;;;;;;;47.33;16.23;;;;;;;-148.88;100.00;77410.66;5003658;28;20033;-86
2022/11/26 03:49:23;;;;;;;48.05;15.07;;;;;;;-148.88;100.00;77414.72;5007399;28;20089;-85
2022/11/26 03:51:49;;;;;;;45.15;15.20;;;;;;;-148.88;100.00;77410.66;5008804;28;20082;-85
2022/11/26 03:54:14;;;;;;;62.70;16.48;;;;;;;-148.88;100.00;77424.88;5002741;28;20033;-84
2022/11/26 03:56:40;;;;;;;52.40;15.70;;;;;;;-148.88;100.00;77418.78;4999386;28;20496;-87
2022/11/26 03:59:05;;;;;;;47.05;16.00;;;;;;;-148.88;100.00;77406.59;4999581;28;20492;-86
2022/11/26 04:01:31;;;;;;;44.67;15.68;;;;;;;-148.88;100.00;77416.75;4999880;28;20030;-86
2022/11/26 04:03:56;;;;;;;48.50;15.95;;;;;;;-148.88;100.00;77418.78;5003508;28;20061;-87
2022/11/26 04:06:21;;;;;;;48.03;15.10;;;;;;;-148.88;100.00;77418.78;5002524;28;20033;-87
2022/11/26 04:08:47;;;;;;;41.63;15.05;;;;;;;-148.88;100.00;77422.84;5005042;28;20033;-85
2022/11/26 04:11:12;;;;;;;50.47;15.25;;;;;;;-148.88;100.00;77422.84;5011120;28;20034;-86
2022/11/26 04:13:37;;;;;;;47.53;14.93;;;;;;;-148.88;100.00;77435.03;5012074;28;20038;-86
2022/11/26 04:16:03;;;;;;;48.67;15.25;;;;;;;-148.88;100.00;77428.94;5009865;28;20022;-87
2022/11/26 04:18:28;;;;;;;50.40;16.15;;;;;;;-148.88;100.00;77439.09;5008167;28;20033;-86
2022/11/26 04:20:54;;;;;;;59.50;16.70;;;;;;;-148.88;100.00;77439.09;5005715;28;20061;-87
2022/11/26 04:23:19;;;;;;;46.45;15.52;;;;;;;-148.88;100.00;77439.09;5005512;28;20263;-87
2022/11/26 04:25:45;;;;;;;58.55;16.27;;;;;;;-148.88;100.00;77443.16;5004364;28;20022;-88
2022/11/26 04:28:10;;;;;;;55.95;16.70;;;;;;;-148.88;100.00;77441.13;5006337;28;20081;-87
2022/11/26 04:30:35;;;;;;;53.60;16.60;;;;;;;-148.88;100.00;77439.09;4996302;28;20503;-84
2022/11/26 04:33:01;;;;;;;44.55;16.48;;;;;;;-148.88;100.00;77435.03;4999911;28;20481;-86
2022/11/26 04:35:26;;;;;;;43.60;14.63;;;;;;;-148.88;100.00;77443.16;5000850;28;20022;-87
2022/11/26 04:37:51;;;;;;;49.13;16.17;;;;;;;-148.88;100.00;77449.25;4997327;28;20026;-87
2022/11/26 04:40:17;;;;;;;54.45;17.30;;;;;;;-148.88;100.00;77453.31;4995809;28;20076;-87
2022/11/26 04:42:42;;;;;;;48.13;15.95;;;;;;;-148.88;100.00;77459.44;4996505;28;20025;-85
2022/11/26 04:45:09;;;;;;;54.25;16.98;;;;;;;-148.88;100.00;77455.38;4997825;28;20080;-88
2022/11/26 04:47:34;;;;;;;62.22;17.98;;;;;;;-148.88;100.00;77467.56;4998589;28;20030;-87
2022/11/26 04:49:59;;;;;;;48.67;16.05;;;;;;;-148.88;100.00;77465.53;5003108;28;20452;-87
2022/11/26 04:52:25;;;;;;;57.33;16.92;;;;;;;-148.88;100.00;77483.81;5001772;28;20033;-88
2022/11/26 04:54:50;;;;;;;51.05;16.38;;;;;;;-148.88;100.00;77485.84;5001516;28;20033;-88
2022/11/26 04:57:16;;;;;;;53.00;16.42;;;;;;;-148.88;100.00;77485.84;5002773;28;20030;-87
2022/11/26 04:59:41;;;;;;;53.70;17.45;;;;;;;-148.88;100.00;77487.88;5000633;28;20022;-87
2022/11/26 05:02:07;;;;;;;62.13;17.52;;;;;;;-148.88;100.00;77496.00;5002003;28;20026;-87
2022/11/26 05:04:35;;;;;;;55.38;16.60;;;;;;;-148.88;100.00;77506.16;4997224;28;20028;-87
2022/11/26 05:07:00;;;;;;;46.38;16.50;;;;;;;-148.88;100.00;77504.13;4994167;28;20076;-87
2022/11/26 05:09:26;;;;;;;70.82;19.65;;;;;;;-148.88;100.00;77520.38;4998949;28;20027;-87
2022/11/26 05:11:52;;;;;;;84.20;19.02;;;;;;;-148.88;100.00;77518.34;4998636;28;20098;-85
2022/11/26 05:14:17;;;;;;;87.78;19.23;;;;;;;-148.88;100.00;77516.31;4996019;28;20023;-86
2022/11/26 05:16:46;;;;;;;58.10;17.05;;;;;;;-148.88;100.00;77508.19;4998067;28;20461;-87
2022/11/26 05:19:11;;;;;;;68.82;18.92;;;;;;;-148.88;100.00;77516.31;4999173;28;20042;-86
2022/11/26 05:21:37;;;;;;;70.70;18.83;;;;;;;-148.88;100.00;77524.44;4994949;28;20030;-88
2022/11/26 05:24:02;;;;;;;66.30;19.88;;;;;;;-148.88;100.00;77524.44;4996486;28;20476;-88
2022/11/26 05:26:28;;;;;;;111.88;20.90;;;;;;;-148.88;100.00;77520.38;4994625;28;20480;-88
2022/11/26 05:28:56;;;;;;;110.35;23.77;;;;;;;-148.88;100.00;77516.31;4993913;28;20448;-88
2022/11/26 05:31:22;;;;;;;85.32;21.20;;;;;;;-148.88;100.00;77520.38;5000019;28;20485;-87
2022/11/26 05:33:52;;;;;;;57.95;18.50;;;;;;;-148.88;100.00;77520.38;5001034;28;20037;-86
2022/11/26 05:36:18;;;;;;;106.15;25.60;;;;;;;-148.88;100.00;77528.50;4997696;28;20374;-87
2022/11/26 05:38:43;;;;;;;60.67;19.63;;;;;;;-148.88;100.00;77528.50;4998020;28;20527;-86
2022/11/26 05:41:08;;;;;;;116.25;22.08;;;;;;;-148.88;100.00;77536.66;4996077;28;20029;-87
2022/11/26 05:43:33;;;;;;;71.07;20.08;;;;;;;-148.88;100.00;77532.59;4997689;28;20053;-87
2022/11/26 05:46:07;;;;;;;126.20;24.80;;;;;;;-148.88;100.00;77542.75;4997290;28;20034;-88
2022/11/26 05:48:32;;;;;;;51.25;18.42;;;;;;;-148.88;100.00;77544.78;4997958;28;20024;-86
2022/11/26 05:50:58;;;;;;;81.53;19.95;;;;;;;-148.88;100.00;77540.72;4996378;28;20030;-87
2022/11/26 05:53:24;;;;;;;67.90;19.48;;;;;;;-148.88;100.00;77552.91;4993801;28;20050;-86
2022/11/26 05:55:49;;;;;;;74.22;20.13;;;;;;;-148.88;100.00;77556.97;4994381;28;20477;-86
2022/11/26 05:58:15;;;;;;;66.32;20.38;;;;;;;-148.88;100.00;77563.06;4993473;28;20477;-87
2022/11/26 06:00:40;;;;;;;84.82;21.77;;;;;;;-148.88;100.00;77559.00;4992536;28;20090;-86
2022/11/26 06:03:06;;;;;;;69.78;19.83;;;;;;;-148.88;100.00;77565.09;4992669;28;20029;-86
2022/11/26 06:05:31;;;;;;;59.20;19.00;;;;;;;-148.88;100.00;77573.22;4995900;28;20026;-86
2022/11/26 06:07:56;;;;;;;69.57;19.27;;;;;;;-148.88;100.00;77561.03;4997675;28;20085;-85
2022/11/26 06:10:22;;;;;;;76.85;21.48;;;;;;;-148.88;100.00;77581.34;4995459;28;20456;-85
2022/11/26 06:12:47;;;;;;;83.30;20.10;;;;;;;-148.88;100.00;77581.34;4997260;28;20030;-86
2022/11/26 06:15:12;;;;;;;95.22;21.92;;;;;;;-148.88;100.00;77587.44;4994315;28;20365;-85
2022/11/26 06:17:38;;;;;;;61.22;20.77;;;;;;;-148.88;100.00;77575.25;4998071;28;20026;-86
2022/11/26 06:20:04;;;;;;;98.10;22.98;;;;;;;-148.88;100.00;77583.38;4998266;28;20025;-86
2022/11/26 06:22:29;;;;;;;81.30;21.25;;;;;;;-148.88;100.00;77573.22;4997558;28;20034;-86
2022/11/26 06:24:55;;;;;;;90.60;24.17;;;;;;;-148.88;100.00;77583.38;4998185;28;20037;-86
2022/11/26 06:27:20;;;;;;;101.95;25.88;;;;;;;-148.88;100.00;77585.41;4998324;28;20027;-86
2022/11/26 06:29:48;;;;;;;74.00;22.25;;;;;;;-148.88;100.00;77585.41;4998464;28;20034;-86
2022/11/26 06:32:13;;;;;;;93.22;22.48;;;;;;;-148.88;100.00;77581.34;4999299;28;20504;-86
2022/11/26 06:34:39;;;;;;;79.63;22.15;;;;;;;-148.88;100.00;77583.38;4997940;28;20034;-86
2022/11/26 06:37:07;;;;;;;108.18;24.90;;;;;;;-148.88;100.00;77587.44;4999376;28;20026;-86
2022/11/26 06:39:33;;;;;;;94.93;25.02;;;;;;;-148.88;100.00;77593.53;4998364;28;20551;-86
2022/11/26 06:41:59;;;;;;;107.15;25.98;;;;;;;-148.88;100.00;77589.47;4998942;28;20038;-85
2022/11/26 06:44:24;;;;;;;112.38;25.63;;;;;;;-148.88;100.00;77591.50;5000280;28;20033;-86
2022/11/26 06:46:49;;;;;;;148.68;27.92;;;;;;;-148.88;100.00;77591.50;4999899;28;20054;-85
2022/11/26 06:49:15;;;;;;;139.15;25.63;;;;;;;-148.88;100.00;77585.41;4998022;28;20168;-85
2022/11/26 06:51:40;;;;;;;103.80;26.50;;;;;;;-148.88;100.00;77591.50;4997542;28;20041;-83
2022/11/26 06:54:06;;;;;;;97.28;26.98;;;;;;;-148.88;100.00;77593.53;4997784;28;20030;-84
2022/11/26 06:56:34;;;;;;;119.03;27.92;;;;;;;-148.88;100.00;77591.50;4998027;28;20026;-85
2022/11/26 06:59:01;;;;;;;109.10;26.98;;;;;;;-148.88;100.00;77591.50;4998114;28;20051;-83
2022/11/26 07:01:26;;;;;;;93.05;25.30;;;;;;;-148.88;100.00;77593.53;4999448;28;20026;-85
2022/11/26 07:03:52;;;;;;;104.72;26.67;;;;;;;-148.88;100.00;77599.63;4997507;28;20025;-86
2022/11/26 07:06:23;;;;;;;123.93;28.50;;;;;;;-148.88;100.00;77591.50;4998870;28;20026;-85
2022/11/26 07:08:50;;;;;;;88.22;25.25;;;;;;;-148.88;100.00;77581.34;4997727;28;20531;-85
2022/11/26 07:11:16;;;;;;;92.72;26.77;;;;;;;-148.88;100.00;77579.31;5000503;28;20117;-86
2022/11/26 07:13:42;;;;;;;97.38;25.85;;;;;;;-148.88;100.00;77589.47;5003638;28;20034;-86
2022/11/26 07:16:07;;;;;;;98.15;26.58;;;;;;;-148.88;100.00;77595.56;5003675;28;20093;-86
2022/11/26 07:18:33;;;;;;;92.65;26.10;;;;;;;-148.88;100.00;77597.59;5000707;28;20064;-84
2022/11/26 07:21:12;;;;;;;97.10;25.35;;;;;;;-148.88;100.00;77601.66;5002312;28;20028;-85
2022/11/26 07:23:38;;;;;;;95.75;25.85;;;;;;;-148.88;100.00;77593.53;4999295;28;20049;-84
2022/11/26 07:26:05;;;;;;;109.78;27.20;;;;;;;-148.88;100.00;77601.66;4995636;28;20076;-84
2022/11/26 07:28:32;;;;;;;143.68;28.95;;;;;;;-148.88;100.00;77609.81;4996229;28;20026;-86
2022/11/26 07:31:09;;;;;;;128.05;28.38;;;;;;;-148.88;100.00;77613.88;4997700;28;20022;-85
2022/11/26 07:33:35;;;;;;;135.93;27.95;;;;;;;-148.88;100.00;77613.88;4999994;28;20034;-86
2022/11/26 07:36:04;;;;;;;124.85;33.17;;;;;;;-148.88;100.00;77609.81;5013085;28;20038;-86
2022/11/26 07:38:30;;;;;;;98.20;26.70;;;;;;;-148.88;100.00;77611.84;5020506;28;20011;-86
2022/11/26 07:41:03;;;;;;;99.63;27.40;;;;;;;-148.88;100.00;77601.66;5007382;28;20023;-86
2022/11/26 07:43:28;;;;;;;121.50;27.30;;;;;;;-148.88;100.00;77609.81;5000522;28;20115;-86
2022/11/26 07:45:54;;;;;;;109.50;26.30;;;;;;;-148.88;100.00;77607.78;5002156;28;20066;-86
2022/11/26 07:48:19;;;;;;;97.70;25.95;;;;;;;-148.88;100.00;77605.75;5000325;28;20120;-85
2022/11/26 07:50:45;;;;;;;116.13;28.33;;;;;;;-148.88;100.00;77617.94;5002074;28;20101;-86
2022/11/26 07:53:17;;;;;;;107.80;26.00;;;;;;;-148.88;100.00;77603.69;4997989;28;20030;-86
2022/11/26 07:55:42;;;;;;;104.82;28.95;;;;;;;-148.88;100.00;77597.59;4998450;28;20029;-85
2022/11/26 07:58:07;;;;;;;122.22;30.38;;;;;;;-148.88;100.00;77609.81;4998243;28;20034;-86
2022/11/26 08:00:33;;;;;;;116.20;29.55;;;;;;;-148.88;100.00;77601.66;4997433;28;20026;-83
2022/11/26 08:02:58;;;;;;;119.07;28.80;;;;;;;-148.88;100.00;77597.59;4996720;28;20022;-84
2022/11/26 08:05:23;;;;;;;116.32;31.33;;;;;;;-148.88;100.00;77605.75;4997113;28;20034;-86
2022/11/26 08:07:49;;;;;;;128.23;31.45;;;;;;;-148.88;100.00;77599.63;4997044;28;20392;-84
2022/11/26 08:10:14;;;;;;;111.88;28.83;;;;;;;-148.88;100.00;77601.66;4998969;28;20042;-84
2022/11/26 08:12:39;;;;;;;123.47;32.90;;;;;;;-148.88;100.00;77601.66;5000568;28;20049;-85
2022/11/26 08:15:05;;;;;;;113.75;29.35;;;;;;;-148.88;100.00;77585.41;4997626;28;20019;-84
2022/11/26 08:17:30;;;;;;;126.53;30.75;;;;;;;-148.88;100.00;77585.41;4998247;28;20022;-86
2022/11/26 08:19:56;;;;;;;126.43;31.17;;;;;;;-148.88;100.00;77593.53;4996662;28;20030;-84
2022/11/26 08:22:21;;;;;;;113.05;28.65;;;;;;;-148.88;100.00;77591.50;4996517;28;20022;-84
2022/11/26 08:24:46;;;;;;;119.90;29.58;;;;;;;-148.88;100.00;77595.56;4996540;28;20030;-82
2022/11/26 08:27:12;;;;;;;132.65;31.70;;;;;;;-148.88;100.00;77595.56;4997901;28;20050;-83
2022/11/26 08:29:37;;;;;;;138.00;30.98;;;;;;;-148.88;100.00;77601.66;4997657;28;20027;-84
2022/11/26 08:32:03;;;;;;;128.70;33.60;;;;;;;-148.88;100.00;77601.66;4997394;28;20073;-85
2022/11/26 08:34:28;;;;;;;121.55;30.33;;;;;;;-148.88;100.00;77597.59;4998171;28;20026;-86
2022/11/26 08:36:54;;;;;;;127.50;29.88;;;;;;;-148.88;100.00;77597.59;4996924;28;20029;-81
2022/11/26 08:39:19;;;;;;;117.25;31.00;;;;;;;-148.88;100.00;77613.88;4994910;28;20022;-84
2022/11/26 08:41:45;;;;;;;115.80;28.55;;;;;;;-148.88;100.00;77615.91;4996712;28;20022;-85
2022/11/26 08:44:11;;;;;;;130.45;29.13;;;;;;;-148.88;100.00;77609.81;4997014;28;20101;-85
2022/11/26 08:46:38;;;;;;;112.78;28.25;;;;;;;-148.88;100.00;77615.91;4996077;28;20486;-85
2022/11/26 08:49:04;;;;;;;102.25;26.38;;;;;;;-148.88;100.00;77607.78;4995609;28;20041;-85
2022/11/26 08:51:30;;;;;;;103.80;25.90;;;;;;;-148.88;100.00;77613.88;4994335;28;20061;-83
2022/11/26 08:53:55;;;;;;;95.75;26.20;;;;;;;-148.88;100.00;77622.00;4996368;28;20022;-83
2022/11/26 08:56:20;;;;;;;100.95;25.42;;;;;;;-148.88;100.00;77607.78;4996368;28;20092;-83
2022/11/26 08:58:47;;;;;;;129.95;29.50;;;;;;;-148.88;100.00;77617.94;4995067;28;20030;-84
2022/11/26 09:01:12;;;;;;;107.30;25.75;;;;;;;-148.88;100.00;77605.75;4996417;28;20018;-84
2022/11/26 09:03:38;;;;;;;105.22;27.70;;;;;;;-148.88;100.00;77609.81;4995849;28;20500;-85
2022/11/26 09:06:05;;;;;;;118.70;27.52;;;;;;;-148.88;100.00;77615.91;4995211;28;20185;-85
2022/11/26 09:08:33;;;;;;;110.35;26.88;;;;;;;-148.88;100.00;77613.88;4994893;28;20034;-85
2022/11/26 09:10:59;;;;;;;115.28;28.70;;;;;;;-148.88;100.00;77607.78;4995373;28;20026;-85
2022/11/26 09:13:24;;;;;;;118.82;28.38;;;;;;;-148.88;100.00;77609.81;4995230;28;20030;-84
2022/11/26 09:15:52;;;;;;;113.38;29.88;;;;;;;-148.88;100.00;77611.84;4995983;28;20500;-84
2022/11/26 09:18:32;;;;;;;126.63;32.22;;;;;;;-148.88;100.00;77613.88;4994053;28;20117;-87
2022/11/26 09:21:01;;;;;;;105.13;30.38;;;;;;;-148.88;100.00;77609.81;4997115;28;20472;-86
2022/11/26 09:23:27;;;;;;;107.88;30.45;;;;;;;-148.88;100.00;77613.88;4997657;28;20019;-86
2022/11/26 09:25:53;;;;;;;105.22;31.40;;;;;;;-148.88;100.00;77617.94;4997990;28;20100;-85
2022/11/26 09:28:18;;;;;;;104.00;31.42;;;;;;;-148.88;100.00;77609.81;4997558;28;20090;-85
2022/11/26 09:30:43;;;;;;;107.22;31.75;;;;;;;-148.88;100.00;77599.63;4999939;28;20033;-86
2022/11/26 09:33:09;;;;;;;123.10;31.30;;;;;;;-148.88;100.00;77609.81;4995514;28;20412;-86
2022/11/26 09:35:34;;;;;;;109.45;33.28;;;;;;;-148.88;100.00;77613.88;4995157;28;20036;-85
2022/11/26 09:38:00;;;;;;;118.50;33.25;;;;;;;-148.88;100.00;77609.81;4994518;28;20030;-85
2022/11/26 09:40:36;;;;;;;114.75;34.55;;;;;;;-148.88;100.00;77601.66;4993446;28;20025;-85
2022/11/26 09:43:24;;;;;;;106.18;34.55;;;;;;;-148.88;100.00;77605.75;4993333;28;20030;-86
2022/11/26 09:45:54;;;;;;;119.45;34.70;;;;;;;-148.88;100.00;77597.59;4993860;28;20544;-89
2022/11/26 09:48:24;;;;;;;104.93;33.40;;;;;;;-148.88;100.00;77593.53;4993736;28;20029;-87
2022/11/26 09:50:53;;;;;;;102.00;34.08;;;;;;;-148.88;100.00;77581.34;4995595;28;20042;-87
2022/11/26 09:53:24;;;;;;;113.53;34.35;;;;;;;-148.88;100.00;77579.31;4999062;28;20024;-86
2022/11/26 09:55:52;;;;;;;110.38;35.05;;;;;;;-148.88;100.00;77575.25;4998524;28;20508;-88
2022/11/26 09:59:12;;;;;;;;;;;;;;;;;;;;;
2022/11/26 10:01:39;;;;;;;109.90;33.55;;;;;;;-148.88;100.00;77552.91;5021437;22;20133;-76
2022/11/26 10:04:15;;;;;;;101.22;34.80;;;;;;;-148.88;100.00;77552.91;5015257;28;20061;-76
2022/11/26 10:06:53;;;;;;;90.97;32.50;;;;;;;-148.88;100.00;77546.81;5016752;28;20025;-77
2022/11/26 10:09:41;;;;;;;98.53;31.23;;;;;;;-148.88;100.00;77544.78;5016396;28;20026;-76
2022/11/26 10:12:15;;;;;;;90.05;31.05;;;;;;;-148.88;100.00;77548.84;5017012;28;20050;-76
2022/11/26 10:15:10;;;;;;;93.25;30.02;;;;;;;-148.88;100.00;77550.88;5016619;28;20084;-75
2022/11/26 10:17:38;;;;;;;85.68;27.88;;;;;;;-148.88;100.00;77540.72;5016326;28;20022;-75
2022/11/26 10:20:12;;;;;;;68.65;26.15;;;;;;;-148.88;100.00;77542.75;5016202;28;20031;-75
2022/11/26 10:22:49;;;;;;;74.38;26.60;;;;;;;-148.88;100.00;77544.78;5016512;28;20022;-76
2022/11/26 10:25:19;;;;;;;81.65;27.65;;;;;;;-148.88;100.00;77544.78;5016510;28;20401;-76
2022/11/26 10:27:45;;;;;;;64.53;24.42;;;;;;;-148.88;100.00;77548.84;5016247;28;20026;-75
2022/11/26 10:30:20;;;;;;;74.55;26.75;;;;;;;-148.88;100.00;77528.50;5016014;28;20492;-75
2022/11/26 10:32:48;;;;;;;68.97;28.55;;;;;;;-148.88;100.00;77536.66;5014715;28;20042;-75
2022/11/26 10:35:26;;;;;;;69.07;25.98;;;;;;;-148.88;100.00;77522.41;5014638;28;20022;-75
2022/11/26 10:37:54;;;;;;;66.53;25.75;;;;;;;-148.88;100.00;77516.31;5015956;28;20401;-75
2022/11/26 10:40:24;;;;;;;59.30;24.65;;;;;;;-148.88;100.00;77500.06;5015862;28;20033;-75
2022/11/26 10:43:11;;;;;;;68.25;26.30;;;;;;;-148.88;100.00;77512.25;5016119;28;20053;-75
2022/11/26 10:45:38;;;;;;;66.53;24.40;;;;;;;-148.88;100.00;77491.94;5016403;28;20018;-75
2022/11/26 10:48:20;;;;;;;64.15;24.40;;;;;;;-148.88;100.00;77500.06;5016188;28;20480;-75
2022/11/26 10:51:05;;;;;;;66.30;26.92;;;;;;;-148.88;100.00;77493.97;5015242;28;20052;-75
2022/11/26 10:53:54;;;;;;;64.90;24.75;;;;;;;-148.88;100.00;77496.00;5015493;28;20030;-75
2022/11/26 10:56:39;;;;;;;53.78;23.80;;;;;;;-148.88;100.00;77496.00;5016137;28;20539;-75
2022/11/26 10:59:17;;;;;;;47.85;21.92;;;;;;;-148.88;100.00;77500.06;5014279;28;20030;-75